Time;durP1;ratioP1;P1;durP2;ratioP2;P2;SDS_P1;SDS_P2;PMS_P1;PMS_P2;Temp;Humidity;BMP_temperature;BMP_pressure;BME280_temperature;BME280_humidity;BME280_pressure;Samples;Min_cycle;Max_cycle;Signal;HPM_P1;HPM_P2
2023/10/21 00:00:33;;;;;;;44.95;20.60;;;8.20;99.90;;;;;;5112048;27;20027;-89
2023/10/21 00:03:02;;;;;;;25.90;17.63;;;8.30;99.90;;;;;;5116913;27;20020;-89
2023/10/21 00:05:27;;;;;;;13.88;10.30;;;8.20;99.90;;;;;;5116394;27;20030;-91
2023/10/21 00:07:53;;;;;;;14.80;9.80;;;8.30;99.90;;;;;;5119594;27;20034;-90
2023/10/21 00:10:19;;;;;;;14.43;8.98;;;8.40;99.90;;;;;;5114486;27;20039;-91
2023/10/21 00:12:45;;;;;;;14.10;9.00;;;8.70;99.90;;;;;;5111186;27;20024;-89
2023/10/21 00:15:11;;;;;;;15.00;8.73;;;8.90;99.90;;;;;;5104563;27;20480;-92
2023/10/21 00:17:36;;;;;;;14.75;9.38;;;9.10;99.90;;;;;;5107211;27;20384;-93
2023/10/21 00:20:06;;;;;;;13.98;9.73;;;9.50;99.90;;;;;;5102991;27;20038;-91
2023/10/21 00:22:32;;;;;;;12.50;9.30;;;9.80;99.90;;;;;;5110174;27;20036;-94
2023/10/21 00:24:58;;;;;;;15.02;9.45;;;10.00;99.90;;;;;;5121421;27;20526;-91
2023/10/21 00:27:24;;;;;;;18.35;11.13;;;10.10;99.90;;;;;;5103068;27;20021;-91
2023/10/21 00:29:50;;;;;;;14.88;10.13;;;10.30;99.90;;;;;;5118496;27;20043;-92
2023/10/21 00:32:16;;;;;;;14.55;9.05;;;10.40;99.90;;;;;;5109151;27;20023;-92
2023/10/21 00:34:41;;;;;;;11.35;7.55;;;10.50;99.90;;;;;;5103993;27;20051;-92
2023/10/21 00:37:08;;;;;;;10.73;6.78;;;10.50;99.90;;;;;;5109350;28;20047;-89
2023/10/21 00:39:34;;;;;;;13.82;10.48;;;10.40;99.90;;;;;;5112468;28;20024;-92
2023/10/21 00:42:01;;;;;;;15.85;13.43;;;10.20;99.90;;;;;;5117108;27;20168;-91
2023/10/21 00:44:27;;;;;;;20.55;14.57;;;9.90;99.90;;;;;;5116562;27;20364;-91
2023/10/21 00:46:53;;;;;;;20.60;16.25;;;9.70;99.90;;;;;;5103119;28;20035;-91
2023/10/21 00:49:22;;;;;;;23.73;16.40;;;9.50;99.90;;;;;;5115485;28;20122;-90
2023/10/21 00:51:49;;;;;;;16.92;14.63;;;9.30;99.90;;;;;;5087610;28;20024;-91
2023/10/21 00:54:16;;;;;;;18.85;15.77;;;9.10;99.90;;;;;;5108336;28;20020;-93
2023/10/21 00:56:42;;;;;;;17.80;15.45;;;8.90;99.90;;;;;;5095953;28;20055;-91
2023/10/21 00:59:10;;;;;;;17.60;14.07;;;8.80;99.90;;;;;;5122388;28;20319;-92
2023/10/21 01:01:35;;;;;;;18.33;14.80;;;8.70;99.90;;;;;;5107049;28;20044;-93
2023/10/21 01:04:02;;;;;;;16.42;12.82;;;8.60;99.90;;;;;;5099925;28;20086;-91
2023/10/21 01:06:28;;;;;;;21.95;15.95;;;8.60;99.90;;;;;;5123446;28;20083;-95
2023/10/21 01:08:53;;;;;;;21.83;12.70;;;8.60;99.90;;;;;;5114801;28;20266;-93
2023/10/21 01:11:19;;;;;;;18.23;11.27;;;8.80;99.90;;;;;;5088664;28;20027;-92
2023/10/21 01:13:45;;;;;;;19.23;13.65;;;9.00;99.90;;;;;;5102888;28;20032;-92
2023/10/21 01:16:10;;;;;;;21.10;15.27;;;9.20;99.90;;;;;;5111187;28;20035;-92
2023/10/21 01:18:38;;;;;;;17.73;13.55;;;9.40;99.90;;;;;;5102745;28;20020;-91
2023/10/21 01:21:05;;;;;;;25.48;18.60;;;9.40;99.90;;;;;;5099537;28;20043;-90
2023/10/21 01:23:34;;;;;;;28.70;19.95;;;9.40;99.90;;;;;;5102416;28;20020;-91
2023/10/21 01:26:01;;;;;;;29.25;20.38;;;9.20;99.90;;;;;;5106693;28;20512;-92
2023/10/21 01:28:28;;;;;;;29.35;19.67;;;9.10;99.90;;;;;;5111832;28;20027;-91
2023/10/21 01:30:54;;;;;;;27.50;20.38;;;9.00;99.90;;;;;;5103168;28;20027;-92
2023/10/21 01:33:20;;;;;;;25.15;18.20;;;8.90;99.90;;;;;;5111271;28;20046;-93
2023/10/21 01:35:46;;;;;;;29.10;19.70;;;8.80;99.90;;;;;;5108628;28;20028;-90
2023/10/21 01:38:12;;;;;;;29.38;19.42;;;8.70;99.90;;;;;;5113566;28;20031;-92
2023/10/21 01:40:38;;;;;;;27.83;19.35;;;8.70;99.90;;;;;;5110911;28;20050;-93
2023/10/21 01:43:03;;;;;;;31.20;17.52;;;8.80;99.90;;;;;;5089301;28;20036;-92
2023/10/21 01:45:30;;;;;;;30.88;17.30;;;9.00;99.90;;;;;;5102356;27;20089;-84
2023/10/21 01:47:55;;;;;;;31.83;18.35;;;9.30;99.90;;;;;;5119058;27;20026;-91
2023/10/21 01:50:21;;;;;;;33.28;18.70;;;9.70;99.90;;;;;;5109664;27;20185;-91
2023/10/21 01:52:46;;;;;;;41.72;19.58;;;10.00;99.90;;;;;;5112935;27;20571;-91
2023/10/21 01:55:12;;;;;;;32.47;17.95;;;10.30;99.90;;;;;;5105464;27;20111;-92
2023/10/21 01:57:38;;;;;;;27.10;16.98;;;10.40;99.90;;;;;;5118140;27;20110;-93
2023/10/21 02:00:09;;;;;;;30.15;16.73;;;10.50;99.90;;;;;;5107975;27;20107;-89
2023/10/21 02:02:40;;;;;;;29.75;15.65;;;10.60;99.90;;;;;;5107742;27;20073;-91
2023/10/21 02:05:06;;;;;;;30.42;15.35;;;10.80;99.90;;;;;;5114783;27;20384;-93
2023/10/21 02:07:36;;;;;;;25.08;13.80;;;10.90;99.90;;;;;;5099667;27;20020;-87
2023/10/21 02:10:03;;;;;;;26.35;16.73;;;11.00;99.90;;;;;;5107890;27;20519;-88
2023/10/21 02:12:32;;;;;;;26.95;16.65;;;11.10;99.90;;;;;;5121643;27;20459;-86
2023/10/21 02:14:57;;;;;;;23.27;15.40;;;11.10;99.90;;;;;;5111630;27;20028;-91
2023/10/21 02:17:23;;;;;;;27.00;15.73;;;11.10;99.90;;;;;;5111788;27;20020;-92
2023/10/21 02:19:57;;;;;;;30.23;17.75;;;11.20;99.90;;;;;;5110019;27;20027;-91
2023/10/21 02:22:27;;;;;;;32.00;17.95;;;11.20;99.90;;;;;;5116625;27;20024;-90
2023/10/21 02:24:54;;;;;;;22.30;13.85;;;11.20;99.90;;;;;;5122144;27;20019;-94
2023/10/21 02:27:20;;;;;;;28.48;15.32;;;11.30;99.90;;;;;;5093807;27;20024;-90
2023/10/21 02:29:46;;;;;;;28.85;14.23;;;11.30;99.90;;;;;;5110717;27;20031;-92
2023/10/21 02:32:12;;;;;;;22.70;14.50;;;11.40;99.90;;;;;;5110967;27;20039;-92
2023/10/21 02:34:38;;;;;;;21.50;12.57;;;11.40;99.90;;;;;;5110916;27;20124;-92
2023/10/21 02:37:03;;;;;;;21.63;13.00;;;11.50;99.90;;;;;;5115508;27;20019;-94
2023/10/21 02:39:30;;;;;;;20.33;12.55;;;11.50;99.90;;;;;;5118740;27;20027;-91
2023/10/21 02:41:55;;;;;;;19.48;10.35;;;11.50;99.90;;;;;;5112594;27;20057;-93
2023/10/21 02:44:21;;;;;;;17.42;10.75;;;11.50;99.90;;;;;;5116833;27;20230;-93
2023/10/21 02:46:48;;;;;;;21.58;10.07;;;11.60;99.90;;;;;;5101602;28;20112;-90
2023/10/21 02:49:14;;;;;;;17.13;11.07;;;11.60;99.90;;;;;;5113331;27;20495;-93
2023/10/21 02:51:41;;;;;;;18.92;9.38;;;11.60;99.90;;;;;;5114509;27;20118;-94
2023/10/21 02:54:07;;;;;;;14.25;9.45;;;11.60;99.90;;;;;;5115878;27;20082;-94
2023/10/21 02:56:33;;;;;;;16.42;9.55;;;11.60;99.90;;;;;;5111251;27;20476;-93
2023/10/21 02:58:59;;;;;;;22.33;10.00;;;11.60;99.90;;;;;;5113753;27;20089;-92
2023/10/21 03:01:25;;;;;;;12.65;8.68;;;11.60;99.90;;;;;;5111357;27;20023;-93
2023/10/21 03:03:51;;;;;;;12.48;7.57;;;11.60;99.90;;;;;;5112280;27;20023;-92
2023/10/21 03:06:19;;;;;;;9.40;6.78;;;11.60;99.90;;;;;;5110941;27;20035;-93
2023/10/21 03:08:45;;;;;;;11.02;6.90;;;11.70;99.90;;;;;;5106564;27;20032;-91
2023/10/21 03:11:11;;;;;;;8.88;6.68;;;11.80;99.90;;;;;;5090333;28;20118;-94
2023/10/21 03:13:38;;;;;;;9.50;6.55;;;11.70;99.90;;;;;;5114654;27;20055;-93
2023/10/21 03:16:08;;;;;;;8.15;5.80;;;11.70;99.90;;;;;;5115688;27;20033;-92
2023/10/21 03:18:36;;;;;;;11.38;6.75;;;11.70;99.90;;;;;;5114339;27;20119;-88
2023/10/21 03:21:02;;;;;;;14.07;6.82;;;11.70;99.90;;;;;;5115724;27;20035;-92
2023/10/21 03:23:28;;;;;;;9.20;6.65;;;11.70;99.90;;;;;;5116675;27;20087;-91
2023/10/21 03:25:58;;;;;;;9.57;6.20;;;11.80;99.90;;;;;;5106754;27;20074;-88
2023/10/21 03:28:26;;;;;;;10.10;6.70;;;11.80;99.90;;;;;;5087652;27;20032;-87
2023/10/21 03:30:58;;;;;;;8.65;5.65;;;11.80;99.90;;;;;;5109253;27;20031;-90
2023/10/21 03:33:24;;;;;;;9.20;6.00;;;11.80;99.90;;;;;;5113596;27;20043;-90
2023/10/21 03:35:54;;;;;;;10.68;6.10;;;11.80;99.90;;;;;;5100874;27;20025;-89
2023/10/21 03:38:21;;;;;;;6.70;5.15;;;11.80;99.90;;;;;;5116380;27;20105;-91
2023/10/21 03:41:05;;;;;;;5.28;4.47;;;11.90;99.90;;;;;;5116284;27;20027;-92
2023/10/21 03:43:31;;;;;;;7.88;4.65;;;11.90;99.90;;;;;;5085970;27;20027;-91
2023/10/21 03:46:04;;;;;;;9.15;5.97;;;11.90;99.90;;;;;;5099952;27;20031;-92
2023/10/21 03:48:33;;;;;;;7.72;4.63;;;11.90;99.90;;;;;;5103640;27;20372;-91
2023/10/21 03:51:07;;;;;;;8.00;5.13;;;11.80;99.90;;;;;;5104650;27;20040;-92
2023/10/21 03:53:33;;;;;;;8.50;5.40;;;11.80;99.90;;;;;;5116642;27;20023;-87
2023/10/21 03:56:00;;;;;;;8.93;4.72;;;11.80;99.90;;;;;;5115911;27;20376;-89
2023/10/21 03:58:26;;;;;;;8.82;4.57;;;11.80;99.90;;;;;;5107497;27;20031;-89
2023/10/21 04:00:52;;;;;;;6.88;4.57;;;11.80;99.90;;;;;;5104040;28;20051;-93
2023/10/21 04:03:19;;;;;;;6.68;4.20;;;11.90;99.90;;;;;;5106482;27;20028;-90
2023/10/21 04:05:45;;;;;;;5.72;4.03;;;11.80;99.90;;;;;;5107920;27;20039;-92
2023/10/21 04:08:11;;;;;;;5.15;4.15;;;11.90;99.90;;;;;;5092093;28;20094;-89
2023/10/21 04:10:36;;;;;;;8.43;4.07;;;11.90;99.90;;;;;;5105122;27;20045;-88
2023/10/21 04:13:04;;;;;;;4.38;3.92;;;11.80;99.90;;;;;;5110250;27;20113;-92
2023/10/21 04:15:49;;;;;;;4.75;3.65;;;11.80;99.90;;;;;;5102468;27;20023;-92
2023/10/21 04:18:14;;;;;;;4.00;3.33;;;11.70;99.90;;;;;;5110083;27;20028;-87
2023/10/21 04:20:40;;;;;;;4.53;3.38;;;11.70;99.90;;;;;;5110046;27;20042;-88
2023/10/21 04:23:06;;;;;;;5.63;3.85;;;11.70;99.90;;;;;;5105642;27;20039;-93
2023/10/21 04:25:32;;;;;;;9.98;4.00;;;11.70;99.90;;;;;;5111644;27;20295;-89
2023/10/21 04:28:00;;;;;;;4.45;3.50;;;11.70;99.90;;;;;;5107850;28;20028;-90
2023/10/21 04:30:25;;;;;;;4.28;3.67;;;11.80;99.90;;;;;;5107749;27;20036;-90
2023/10/21 04:32:54;;;;;;;9.02;4.10;;;11.80;99.90;;;;;;5109031;27;20575;-90
2023/10/21 04:35:19;;;;;;;5.22;3.92;;;11.80;99.90;;;;;;5091191;27;20031;-89
2023/10/21 04:37:45;;;;;;;4.10;3.70;;;11.80;99.90;;;;;;5111407;27;20019;-91
2023/10/21 04:40:11;;;;;;;3.50;3.20;;;11.80;99.90;;;;;;5109713;28;20023;-91
2023/10/21 04:42:38;;;;;;;5.38;3.78;;;11.80;99.90;;;;;;5112642;28;20032;-90
2023/10/21 04:45:08;;;;;;;5.78;3.80;;;11.80;99.90;;;;;;5110336;27;20058;-88
2023/10/21 04:47:34;;;;;;;6.00;3.58;;;11.80;99.90;;;;;;5113867;28;20032;-91
2023/10/21 04:49:59;;;;;;;8.05;3.90;;;11.80;99.90;;;;;;5106504;28;20081;-95
2023/10/21 04:52:25;;;;;;;6.38;4.38;;;11.80;99.90;;;;;;5107547;28;20027;-89
2023/10/21 04:54:51;;;;;;;4.93;3.83;;;11.70;99.90;;;;;;5106709;28;20027;-90
2023/10/21 04:57:16;;;;;;;5.47;4.20;;;11.70;99.90;;;;;;5104865;28;20030;-90
2023/10/21 04:59:43;;;;;;;5.97;3.20;;;11.70;99.90;;;;;;5108755;28;20153;-89
2023/10/21 05:02:08;;;;;;;8.60;3.78;;;11.70;99.90;;;;;;5106965;28;20028;-88
2023/10/21 05:04:37;;;;;;;6.85;3.35;;;11.70;99.90;;;;;;5107701;28;20543;-94
2023/10/21 05:07:03;;;;;;;6.35;3.70;;;11.70;99.90;;;;;;5101626;28;20725;-90
2023/10/21 05:09:30;;;;;;;4.50;3.53;;;11.70;99.90;;;;;;5104993;28;20032;-89
2023/10/21 05:11:56;;;;;;;5.00;4.03;;;11.60;99.90;;;;;;5080006;28;20373;-93
2023/10/21 05:14:22;;;;;;;4.85;3.65;;;11.60;99.90;;;;;;5108807;28;20038;-90
2023/10/21 05:16:48;;;;;;;10.05;4.50;;;11.60;99.90;;;;;;5104365;28;20028;-90
2023/10/21 05:19:13;;;;;;;7.13;4.13;;;11.60;99.90;;;;;;5114456;27;20035;-89
2023/10/21 05:21:39;;;;;;;11.27;4.30;;;11.60;99.90;;;;;;5113637;27;20391;-85
2023/10/21 05:24:08;;;;;;;5.93;3.70;;;11.60;99.90;;;;;;5109861;28;20034;-90
2023/10/21 05:26:33;;;;;;;10.10;3.92;;;11.60;99.90;;;;;;5093169;28;20026;-89
2023/10/21 05:29:05;;;;;;;4.10;3.55;;;11.60;99.90;;;;;;5117629;27;20032;-89
2023/10/21 05:31:30;;;;;;;5.43;3.90;;;11.50;99.90;;;;;;5114178;27;20111;-91
2023/10/21 05:33:59;;;;;;;6.45;3.80;;;11.50;99.90;;;;;;5077549;28;20131;-89
2023/10/21 05:36:25;;;;;;;4.95;3.55;;;11.50;99.90;;;;;;5069920;28;20104;-91
2023/10/21 05:38:51;;;;;;;4.72;3.70;;;11.50;99.90;;;;;;5068124;28;20406;-90
2023/10/21 05:41:17;;;;;;;6.28;3.70;;;11.50;99.90;;;;;;5061566;28;20037;-93
2023/10/21 05:43:52;;;;;;;5.50;3.63;;;11.50;99.90;;;;;;5060249;28;20225;-89
2023/10/21 05:46:18;;;;;;;5.72;3.88;;;11.50;99.90;;;;;;5063659;28;20067;-88
2023/10/21 05:48:44;;;;;;;4.53;3.78;;;11.50;99.90;;;;;;5064732;28;20449;-86
2023/10/21 05:51:10;;;;;;;3.65;3.08;;;11.60;99.90;;;;;;5065992;28;20071;-89
2023/10/21 05:53:35;;;;;;;3.47;2.90;;;11.60;99.90;;;;;;5064790;28;20120;-87
2023/10/21 05:56:01;;;;;;;4.93;3.10;;;11.70;99.90;;;;;;5051189;28;20555;-90
2023/10/21 05:58:27;;;;;;;6.45;2.83;;;11.70;99.90;;;;;;5072760;28;20024;-90
2023/10/21 06:00:58;;;;;;;4.85;3.22;;;11.70;99.90;;;;;;5065124;28;20032;-86
2023/10/21 06:03:27;;;;;;;4.43;2.63;;;11.80;99.90;;;;;;5066508;28;20465;-89
2023/10/21 06:05:52;;;;;;;5.88;2.50;;;11.90;99.90;;;;;;5067730;28;20375;-87
2023/10/21 06:08:18;;;;;;;2.58;2.00;;;12.00;99.90;;;;;;5061352;28;20036;-87
2023/10/21 06:10:44;;;;;;;4.20;2.22;;;12.10;99.90;;;;;;5062620;28;20556;-82
2023/10/21 06:13:10;;;;;;;10.40;2.05;;;12.10;99.90;;;;;;5058194;28;20039;-85
2023/10/21 06:15:35;;;;;;;2.78;2.05;;;12.20;99.90;;;;;;5059939;28;20041;-84
2023/10/21 06:18:01;;;;;;;2.95;2.00;;;12.30;99.90;;;;;;5064456;28;20029;-88
2023/10/21 06:20:26;;;;;;;1.90;1.80;;;12.30;99.90;;;;;;5061349;28;20033;-87
2023/10/21 06:22:52;;;;;;;2.58;2.10;;;12.40;99.90;;;;;;5065962;28;20028;-84
2023/10/21 06:25:18;;;;;;;4.18;2.10;;;12.40;99.90;;;;;;5065704;28;20025;-87
2023/10/21 06:27:43;;;;;;;3.97;1.92;;;12.40;99.90;;;;;;5062884;28;20031;-83
2023/10/21 06:30:10;;;;;;;2.58;1.95;;;12.40;99.90;;;;;;5052785;28;20036;-86
2023/10/21 06:32:36;;;;;;;3.92;1.75;;;12.40;99.90;;;;;;5065691;28;20062;-90
2023/10/21 06:35:02;;;;;;;6.72;2.45;;;12.40;99.90;;;;;;5109880;27;20448;-89
2023/10/21 06:37:28;;;;;;;4.28;2.03;;;12.40;99.90;;;;;;5121238;27;20164;-86
2023/10/21 06:39:53;;;;;;;2.25;2.03;;;12.50;99.90;;;;;;5105619;27;20117;-84
2023/10/21 06:42:19;;;;;;;4.28;2.15;;;12.40;99.90;;;;;;5108187;27;20586;-86
2023/10/21 06:44:45;;;;;;;13.27;2.10;;;12.40;99.90;;;;;;5095183;27;20400;-85
2023/10/21 06:47:10;;;;;;;3.03;2.10;;;12.40;99.90;;;;;;5116263;27;20035;-89
2023/10/21 06:49:36;;;;;;;3.15;2.00;;;12.50;99.90;;;;;;5110208;27;20039;-86
2023/10/21 06:52:01;;;;;;;2.50;2.13;;;12.40;99.90;;;;;;5104437;27;20031;-83
2023/10/21 06:54:27;;;;;;;1.98;1.55;;;12.40;99.90;;;;;;5103352;27;20023;-87
2023/10/21 06:56:52;;;;;;;5.03;1.77;;;12.50;99.90;;;;;;5091001;28;20034;-89
2023/10/21 06:59:18;;;;;;;2.88;1.73;;;12.40;99.90;;;;;;5105692;27;20019;-85
2023/10/21 07:01:44;;;;;;;3.95;1.70;;;12.40;99.90;;;;;;5104473;27;20023;-86
2023/10/21 07:04:10;;;;;;;2.10;1.67;;;12.40;99.90;;;;;;5109752;27;20066;-89
2023/10/21 07:06:45;;;;;;;3.47;1.50;;;12.40;99.90;;;;;;5106086;27;20059;-86
2023/10/21 07:09:11;;;;;;;;;;;12.40;99.90;;;;;;5097336;27;20522;-88
2023/10/21 07:11:40;;;;;;;2.45;1.30;;;12.50;99.90;;;;;;5112805;27;19990;-87
2023/10/21 07:14:06;;;;;;;8.98;1.13;;;12.50;99.90;;;;;;5103406;27;20489;-87
2023/10/21 07:16:31;;;;;;;1.55;1.45;;;12.60;99.90;;;;;;5106398;27;20066;-87
2023/10/21 07:18:57;;;;;;;2.65;1.13;;;12.50;99.90;;;;;;5106514;27;20112;-85
2023/10/21 07:21:24;;;;;;;1.08;1.00;;;12.50;99.90;;;;;;5103610;27;20028;-85
2023/10/21 07:23:49;;;;;;;3.40;1.00;;;12.60;99.90;;;;;;5104308;27;20493;-83
2023/10/21 07:26:15;;;;;;;1.35;1.10;;;12.60;99.90;;;;;;5112177;27;20023;-85
2023/10/21 07:28:41;;;;;;;1.40;1.05;;;12.70;99.90;;;;;;5098485;27;20032;-88
2023/10/21 07:31:06;;;;;;;1.02;1.02;;;12.70;99.90;;;;;;5096954;28;20510;-81
2023/10/21 07:33:32;;;;;;;12.30;3.47;;;12.80;99.90;;;;;;5115115;27;20119;-81
2023/10/21 07:35:57;;;;;;;2.80;1.30;;;12.90;99.90;;;;;;5118980;27;20027;-87
2023/10/21 07:38:23;;;;;;;4.10;1.10;;;12.90;99.90;;;;;;5104062;27;20114;-86
2023/10/21 07:40:49;;;;;;;1.50;0.73;;;12.90;99.90;;;;;;5098840;27;20062;-88
2023/10/21 07:43:17;;;;;;;1.75;0.80;;;13.00;99.90;;;;;;5110828;27;20020;-84
2023/10/21 07:45:46;;;;;;;1.00;0.82;;;13.00;99.90;;;;;;5101358;27;20061;-85
2023/10/21 07:48:12;;;;;;;0.93;0.77;;;13.00;99.90;;;;;;5104189;27;20027;-83
2023/10/21 07:50:38;;;;;;;1.25;0.73;;;13.10;99.90;;;;;;5111637;27;20468;-86
2023/10/21 07:53:04;;;;;;;2.53;0.50;;;13.10;99.90;;;;;;5119496;27;20382;-90
2023/10/21 07:55:29;;;;;;;2.40;0.80;;;13.20;99.90;;;;;;5109541;27;20019;-86
2023/10/21 07:57:56;;;;;;;2.65;0.63;;;13.30;99.90;;;;;;5107204;27;20495;-84
2023/10/21 08:00:21;;;;;;;0.77;0.60;;;13.40;99.90;;;;;;5101999;27;20039;-84
2023/10/21 08:02:48;;;;;;;5.28;0.70;;;13.40;99.90;;;;;;5112966;27;20027;-84
2023/10/21 08:05:15;;;;;;;2.67;0.52;;;13.40;99.90;;;;;;5102650;27;20051;-83
2023/10/21 08:07:41;;;;;;;0.47;0.47;;;13.50;99.90;;;;;;5105391;27;20028;-89
2023/10/21 08:10:07;;;;;;;2.17;0.47;;;13.60;99.90;;;;;;5094545;27;20042;-82
2023/10/21 08:12:33;;;;;;;0.50;0.50;;;13.60;99.90;;;;;;5075288;28;20027;-85
2023/10/21 08:15:07;;;;;;;0.50;0.50;;;13.60;99.90;;;;;;5109747;27;20019;-81
2023/10/21 08:17:33;;;;;;;0.50;0.50;;;13.70;99.90;;;;;;5102634;27;20027;-81
2023/10/21 08:19:59;;;;;;;8.25;0.75;;;13.70;99.90;;;;;;5107909;27;20440;-86
2023/10/21 08:22:25;;;;;;;3.00;0.63;;;13.70;99.90;;;;;;5109172;27;20038;-85
2023/10/21 08:24:50;;;;;;;5.68;0.57;;;13.70;99.90;;;;;;5108400;27;20030;-84
2023/10/21 08:27:16;;;;;;;0.70;0.65;;;13.60;99.90;;;;;;5102212;27;20088;-81
2023/10/21 08:29:42;;;;;;;0.75;0.75;;;13.70;99.90;;;;;;5114057;27;20045;-83
2023/10/21 08:32:07;;;;;;;0.63;0.50;;;13.60;99.90;;;;;;5116560;27;20110;-86
2023/10/21 08:34:36;;;;;;;3.95;0.52;;;13.80;99.90;;;;;;5104175;27;20043;-82
2023/10/21 08:37:07;;;;;;;3.95;0.68;;;13.80;99.90;;;;;;5101895;27;20072;-83
2023/10/21 08:39:34;;;;;;;0.65;0.50;;;13.80;99.90;;;;;;5103491;28;20036;-82
2023/10/21 08:42:00;;;;;;;2.70;0.57;;;13.90;99.90;;;;;;5105047;27;20022;-80
2023/10/21 08:44:26;;;;;;;0.63;0.63;;;13.90;99.90;;;;;;5082560;28;20441;-81
2023/10/21 08:46:56;;;;;;;5.00;0.52;;;13.90;99.90;;;;;;5118402;27;20111;-82
2023/10/21 08:49:23;;;;;;;0.45;0.40;;;13.90;99.90;;;;;;5100308;28;20031;-83
2023/10/21 08:51:52;;;;;;;1.90;0.40;;;14.00;99.90;;;;;;5104156;28;20012;-82
2023/10/21 08:54:19;;;;;;;0.90;0.50;;;14.00;99.90;;;;;;5115500;27;20019;-85
2023/10/21 08:56:45;;;;;;;0.82;0.63;;;14.10;99.90;;;;;;5100526;28;20031;-84
2023/10/21 08:59:11;;;;;;;0.65;0.43;;;14.10;99.90;;;;;;5110538;28;20097;-84
2023/10/21 09:01:38;;;;;;;2.92;0.60;;;14.20;99.90;;;;;;5116472;28;20050;-83
2023/10/21 09:04:04;;;;;;;1.45;0.50;;;14.30;99.90;;;;;;5096684;28;20365;-81
2023/10/21 09:06:30;;;;;;;0.82;0.60;;;14.20;99.90;;;;;;5115928;28;20019;-79
2023/10/21 09:08:56;;;;;;;0.63;0.60;;;14.30;99.90;;;;;;5123455;28;20536;-81
2023/10/21 09:11:26;;;;;;;0.63;0.50;;;14.30;99.90;;;;;;5094945;28;20488;-84
2023/10/21 09:13:58;;;;;;;1.92;0.60;;;14.30;99.90;;;;;;5101222;28;20053;-79
2023/10/21 09:16:34;;;;;;;0.70;0.70;;;14.30;99.90;;;;;;5119215;28;20050;-80
2023/10/21 09:19:06;;;;;;;5.50;0.68;;;14.20;99.90;;;;;;5095069;28;20039;-80
2023/10/21 09:21:37;;;;;;;0.40;0.40;;;14.20;99.90;;;;;;5103318;28;20032;-80
2023/10/21 09:24:05;;;;;;;1.10;0.50;;;14.20;99.90;;;;;;5106905;28;20495;-81
2023/10/21 09:26:39;;;;;;;0.60;0.60;;;14.20;99.90;;;;;;5105961;28;20404;-81
2023/10/21 09:29:25;;;;;;;0.95;0.73;;;14.20;99.90;;;;;;5113634;28;20476;-82
2023/10/21 09:31:55;;;;;;;3.50;1.08;;;14.10;99.90;;;;;;5120489;28;20132;-81
2023/10/21 09:34:32;;;;;;;1.85;1.00;;;14.10;99.90;;;;;;5104028;28;20055;-82
2023/10/21 09:37:03;;;;;;;2.95;0.70;;;14.10;99.90;;;;;;5119130;28;20036;-83
2023/10/21 09:39:38;;;;;;;14.75;3.72;;;14.10;99.90;;;;;;5118548;28;20023;-84
2023/10/21 09:42:06;;;;;;;2.20;0.63;;;14.10;99.90;;;;;;5102444;28;20024;-83
2023/10/21 09:44:34;;;;;;;1.17;0.70;;;14.10;99.90;;;;;;5087209;28;20035;-83
2023/10/21 09:47:03;;;;;;;1.70;0.60;;;14.10;99.90;;;;;;5114230;28;20035;-81
2023/10/21 09:49:40;;;;;;;1.98;0.60;;;14.20;99.90;;;;;;5082605;28;20104;-81
2023/10/21 09:52:14;;;;;;;2.15;0.60;;;14.20;99.90;;;;;;5100111;28;20027;-81
2023/10/21 09:55:08;;;;;;;0.88;0.63;;;14.10;99.90;;;;;;5126148;28;20375;-85
2023/10/21 09:57:38;;;;;;;0.45;0.45;;;14.00;99.90;;;;;;5103715;28;20104;-82
2023/10/21 10:00:08;;;;;;;1.20;0.63;;;14.00;99.90;;;;;;5110977;28;20342;-82
2023/10/21 10:02:37;;;;;;;0.65;0.57;;;14.10;99.90;;;;;;5103809;28;20403;-82
2023/10/21 10:05:08;;;;;;;2.47;0.40;;;14.20;99.90;;;;;;5107028;28;20382;-81
2023/10/21 10:07:39;;;;;;;0.65;0.45;;;14.30;99.90;;;;;;5115480;27;20296;-81
2023/10/21 10:10:07;;;;;;;1.65;0.65;;;14.30;99.90;;;;;;5115529;27;20538;-81
2023/10/21 10:12:38;;;;;;;0.82;0.77;;;14.30;99.90;;;;;;5114571;27;20383;-80
2023/10/21 10:15:28;;;;;;;1.55;0.88;;;14.30;99.90;;;;;;5115827;27;20028;-80
2023/10/21 10:17:54;;;;;;;0.90;0.52;;;14.30;99.90;;;;;;5111321;27;20034;-80
2023/10/21 10:20:26;;;;;;;2.60;0.55;;;14.30;99.90;;;;;;5122666;27;20027;-80
2023/10/21 10:23:02;;;;;;;6.20;0.60;;;14.30;99.90;;;;;;5101427;27;20169;-80
2023/10/21 10:25:37;;;;;;;2.65;0.75;;;14.30;99.90;;;;;;5116634;27;20050;-81
2023/10/21 10:28:04;;;;;;;3.78;0.95;;;14.30;99.90;;;;;;5115559;27;20039;-79
2023/10/21 10:30:32;;;;;;;2.33;1.10;;;14.40;99.90;;;;;;5108516;27;20492;-81
2023/10/21 10:33:06;;;;;;;2.05;0.90;;;14.30;99.90;;;;;;5120970;27;20043;-81
2023/10/21 10:35:37;;;;;;;2.17;0.70;;;14.30;99.90;;;;;;5118545;27;20027;-80
2023/10/21 10:38:16;;;;;;;2.08;0.93;;;14.20;99.90;;;;;;5107608;27;20024;-80
2023/10/21 10:40:44;;;;;;;1.92;0.60;;;14.20;99.90;;;;;;5115478;27;20024;-80
2023/10/21 10:43:15;;;;;;;3.90;0.70;;;14.30;99.90;;;;;;5126295;27;20038;-80
2023/10/21 10:45:41;;;;;;;3.45;0.60;;;14.40;99.90;;;;;;5108251;27;20028;-81
2023/10/21 10:48:07;;;;;;;2.33;0.75;;;14.50;99.90;;;;;;5106080;27;20031;-80
2023/10/21 10:50:40;;;;;;;1.77;0.60;;;14.50;99.90;;;;;;5112114;27;20245;-84
2023/10/21 10:53:16;;;;;;;3.60;0.70;;;14.60;99.90;;;;;;5090365;27;20502;-85
2023/10/21 10:55:50;;;;;;;1.05;0.70;;;14.60;99.90;;;;;;5115963;27;20039;-82
2023/10/21 10:58:18;;;;;;;2.03;0.68;;;14.60;99.90;;;;;;5113810;27;20095;-82
2023/10/21 11:00:45;;;;;;;1.45;0.57;;;14.70;99.90;;;;;;5111837;27;20476;-83
2023/10/21 11:03:21;;;;;;;1.95;0.60;;;14.70;99.90;;;;;;5116156;27;20092;-83
2023/10/21 11:05:48;;;;;;;1.17;0.60;;;14.80;99.90;;;;;;5123851;27;20058;-81
2023/10/21 11:08:15;;;;;;;1.20;1.02;;;14.90;99.90;;;;;;5117160;27;20436;-80
2023/10/21 11:10:41;;;;;;;1.73;0.68;;;14.90;99.90;;;;;;5102022;27;20343;-81
2023/10/21 11:13:07;;;;;;;1.25;1.00;;;15.00;99.90;;;;;;5106151;27;20035;-85
2023/10/21 11:15:44;;;;;;;4.65;0.60;;;15.10;99.90;;;;;;5095158;27;20526;-83
2023/10/21 11:18:12;;;;;;;0.47;0.47;;;15.10;99.90;;;;;;5119612;27;20546;-79
2023/10/21 11:20:47;;;;;;;3.67;0.80;;;15.20;99.90;;;;;;5110015;27;20032;-80
2023/10/21 11:23:12;;;;;;;3.42;0.65;;;15.20;99.90;;;;;;5116274;27;20023;-84
2023/10/21 11:25:41;;;;;;;1.13;0.60;;;15.30;99.90;;;;;;5107012;27;20226;-84
2023/10/21 11:28:06;;;;;;;1.05;0.60;;;15.40;99.90;;;;;;5103239;27;20020;-82
2023/10/21 11:30:34;;;;;;;0.40;0.35;;;15.50;99.90;;;;;;5105385;27;20046;-83
2023/10/21 11:33:10;;;;;;;3.63;0.52;;;15.40;99.90;;;;;;5102164;27;20046;-83
2023/10/21 11:35:44;;;;;;;;;;;15.50;99.90;;;;;;5119805;27;20112;-81
2023/10/21 11:38:12;;;;;;;0.40;0.40;;;15.60;99.90;;;;;;5108545;27;19931;-80
2023/10/21 11:40:38;;;;;;;0.40;0.40;;;15.60;99.90;;;;;;5109450;27;20032;-81
2023/10/21 11:43:08;;;;;;;1.05;0.30;;;15.70;99.90;;;;;;5120584;27;20480;-84
2023/10/21 11:45:35;;;;;;;0.57;0.38;;;15.70;99.90;;;;;;5107884;27;20092;-84
2023/10/21 11:48:01;;;;;;;2.15;1.15;;;15.70;99.90;;;;;;5103803;27;20523;-86
2023/10/21 11:50:34;;;;;;;1.00;0.50;;;15.70;99.90;;;;;;5115850;27;20047;-85
2023/10/21 11:53:03;;;;;;;0.77;0.77;;;15.70;99.90;;;;;;5110590;27;20032;-84
2023/10/21 12:45:49;;;;;;;1.38;0.40;;;15.50;99.90;;;;;;5110074;28;20122;-81
2023/10/21 12:48:22;;;;;;;1.92;0.35;;;15.50;99.90;;;;;;5113803;27;20028;-85
2023/10/21 12:50:56;;;;;;;0.57;0.47;;;15.50;99.90;;;;;;5111167;27;20118;-84
2023/10/21 12:53:25;;;;;;;0.60;0.43;;;15.50;99.90;;;;;;5106200;28;20054;-84
2023/10/21 12:55:53;;;;;;;0.50;0.40;;;15.50;99.90;;;;;;5106391;28;20027;-83
2023/10/21 12:58:20;;;;;;;0.43;0.38;;;15.50;99.90;;;;;;5111857;28;21287;-86
2023/10/21 13:00:46;;;;;;;6.00;0.30;;;15.50;99.90;;;;;;5109857;28;20098;-82
2023/10/21 13:03:12;;;;;;;0.65;0.35;;;15.50;99.90;;;;;;5108840;28;20094;-84
2023/10/21 13:05:38;;;;;;;1.00;0.30;;;15.50;99.90;;;;;;5108540;28;20027;-83
2023/10/21 13:08:08;;;;;;;0.80;0.50;;;15.70;99.90;;;;;;5106888;28;20038;-83
2023/10/21 13:10:34;;;;;;;2.17;0.68;;;15.60;99.90;;;;;;5112695;28;20035;-83
2023/10/21 13:13:03;;;;;;;1.25;0.40;;;15.60;99.90;;;;;;5108347;28;20439;-82
2023/10/21 13:15:32;;;;;;;0.93;0.38;;;15.60;99.90;;;;;;5110783;28;20046;-83
2023/10/21 13:17:58;;;;;;;0.30;0.30;;;15.50;99.90;;;;;;5114056;28;20460;-83
2023/10/21 13:20:24;;;;;;;3.78;0.22;;;15.50;99.90;;;;;;5109948;28;20067;-81
2023/10/21 13:22:54;;;;;;;2.42;0.50;;;15.40;99.90;;;;;;5103240;28;20036;-83
2023/10/21 13:25:21;;;;;;;0.45;0.40;;;15.30;99.90;;;;;;5100093;28;20024;-82
2023/10/21 13:27:48;;;;;;;2.20;0.88;;;15.40;99.90;;;;;;5115431;28;20032;-84
2023/10/21 13:30:14;;;;;;;1.23;0.52;;;15.40;99.90;;;;;;5111860;28;20031;-84
2023/10/21 13:32:49;;;;;;;2.25;2.03;;;15.30;99.90;;;;;;5120297;28;20518;-83
2023/10/21 13:35:16;;;;;;;6.65;3.92;;;15.20;99.90;;;;;;5107811;28;20024;-82